地図

経路データ

SID SEASON NUMBER BASIN SUBBASIN NAME ISO_TIME NATURE LAT LON WMO_WIND WMO_PRES WMO_AGENCY TRACK_TYPE DIST2LAND LANDFALL IFLAG USA_AGENCY USA_ATCF_ID USA_LAT USA_LON USA_RECORD USA_STATUS USA_WIND USA_PRES USA_SSHS USA_R34_NE USA_R34_SE USA_R34_SW USA_R34_NW USA_R50_NE USA_R50_SE USA_R50_SW USA_R50_NW USA_R64_NE USA_R64_SE USA_R64_SW USA_R64_NW USA_POCI USA_ROCI USA_RMW USA_EYE TOKYO_LAT TOKYO_LON TOKYO_GRADE TOKYO_WIND TOKYO_PRES TOKYO_R50_DIR TOKYO_R50_LONG TOKYO_R50_SHORT TOKYO_R30_DIR TOKYO_R30_LONG TOKYO_R30_SHORT TOKYO_LAND CMA_LAT CMA_LON CMA_CAT CMA_WIND CMA_PRES HKO_LAT HKO_LON HKO_CAT HKO_WIND HKO_PRES NEWDELHI_LAT NEWDELHI_LON NEWDELHI_GRADE NEWDELHI_WIND NEWDELHI_PRES NEWDELHI_CI NEWDELHI_DP NEWDELHI_POCI REUNION_LAT REUNION_LON REUNION_TYPE REUNION_WIND REUNION_PRES REUNION_TNUM REUNION_CI REUNION_RMW REUNION_R34_NE REUNION_R34_SE REUNION_R34_SW REUNION_R34_NW REUNION_R50_NE REUNION_R50_SE REUNION_R50_SW REUNION_R50_NW REUNION_R64_NE REUNION_R64_SE REUNION_R64_SW REUNION_R64_NW BOM_LAT BOM_LON BOM_TYPE BOM_WIND BOM_PRES BOM_TNUM BOM_CI BOM_RMW BOM_R34_NE BOM_R34_SE BOM_R34_SW BOM_R34_NW BOM_R50_NE BOM_R50_SE BOM_R50_SW BOM_R50_NW BOM_R64_NE BOM_R64_SE BOM_R64_SW BOM_R64_NW BOM_ROCI BOM_POCI BOM_EYE BOM_POS_METHOD BOM_PRES_METHOD NADI_LAT NADI_LON NADI_CAT NADI_WIND NADI_PRES WELLINGTON_LAT WELLINGTON_LON WELLINGTON_WIND WELLINGTON_PRES DS824_LAT DS824_LON DS824_STAGE DS824_WIND DS824_PRES TD9636_LAT TD9636_LON TD9636_STAGE TD9636_WIND TD9636_PRES TD9635_LAT TD9635_LON TD9635_WIND TD9635_PRES TD9635_ROCI NEUMANN_LAT NEUMANN_LON NEUMANN_CLASS NEUMANN_WIND NEUMANN_PRES MLC_LAT MLC_LON MLC_CLASS MLC_WIND MLC_PRES USA_GUST BOM_GUST BOM_GUST_PER REUNION_GUST REUNION_GUST_PER USA_SEAHGT USA_SEARAD_NE USA_SEARAD_SE USA_SEARAD_SW USA_SEARAD_NW STORM_SPEED STORM_DIR
1926254N17278 1926 42 NA CS NOT_NAMED 1926-09-11 00:00:00 TS 16.6000 -81.7000 25 hurdat_atl main 232 232 O_____________ hurdat_atl AL061926 16.6000 -81.7000 TD 25 -1 2 343
1926254N17278 1926 42 NA CS NOT_NAMED 1926-09-11 03:00:00 TS 16.7000 -81.7475 main 239 231 P_____________ AL061926 16.7000 -81.7475 TD 25 -1 2 333
1926254N17278 1926 42 NA CS NOT_NAMED 1926-09-11 06:00:00 TS 16.8000 -81.8000 25 hurdat_atl main 239 239 O_____________ hurdat_atl AL061926 16.8000 -81.8000 TD 25 -1 2 329
1926254N17278 1926 42 NA CS NOT_NAMED 1926-09-11 09:00:00 TS 16.9000 -81.8700 main 240 240 P_____________ AL061926 16.9000 -81.8700 TD 27 -1 3 316
1926254N17278 1926 42 NA CS NOT_NAMED 1926-09-11 12:00:00 TS 17.0000 -82.0000 30 hurdat_atl main 242 235 O_____________ hurdat_atl AL061926 17.0000 -82.0000 TD 30 -1 4 300
1926254N17278 1926 42 NA CS NOT_NAMED 1926-09-11 15:00:00 TS 17.1000 -82.2275 main 238 233 P_____________ AL061926 17.1000 -82.2275 TD 30 -1 5 293
1926254N17278 1926 42 NA CS NOT_NAMED 1926-09-11 18:00:00 TS 17.2000 -82.5000 30 hurdat_atl main 233 229 O_____________ hurdat_atl AL061926 17.2000 -82.5000 TD 30 -1 5 291
1926254N17278 1926 42 NA CS NOT_NAMED 1926-09-11 21:00:00 TS 17.2925 -82.7501 main 229 223 P_____________ AL061926 17.2925 -82.7501 TD 30 -1 5 293
1926254N17278 1926 42 NA CS NOT_NAMED 1926-09-12 00:00:00 TS 17.4000 -83.0000 30 hurdat_atl main 226 220 O_____________ hurdat_atl AL061926 17.4000 -83.0000 TD 30 -1 5 298
1926254N17278 1926 42 NA CS NOT_NAMED 1926-09-12 03:00:00 TS 17.5425 -83.2500 main 218 218 P_____________ AL061926 17.5425 -83.2500 TD 30 -1 6 302
1926254N17278 1926 42 NA CS NOT_NAMED 1926-09-12 06:00:00 TS 17.7000 -83.5000 30 hurdat_atl main 229 225 O_____________ hurdat_atl AL061926 17.7000 -83.5000 TD 30 -1 6 300
1926254N17278 1926 42 NA CS NOT_NAMED 1926-09-12 09:00:00 TS 17.8351 -83.7800 main 230 230 P_____________ AL061926 17.8351 -83.7800 TD 30 -1 6 302
1926254N17278 1926 42 NA CS NOT_NAMED 1926-09-12 12:00:00 TS 18.0000 -84.0000 30 hurdat_atl main 246 246 O_____________ hurdat_atl AL061926 18.0000 -84.0000 TD 30 -1 5 323
1926254N17278 1926 42 NA CS NOT_NAMED 1926-09-12 15:00:00 TS 18.2349 -84.0950 main 265 265 P_____________ AL061926 18.2349 -84.0950 TD 30 -1 5 349
1926254N17278 1926 42 NA CS NOT_NAMED 1926-09-12 18:00:00 TS 18.5000 -84.1000 30 hurdat_atl main 297 297 O_____________ hurdat_atl AL061926 18.5000 -84.1000 TD 30 -1 5 0
1926254N17278 1926 42 NA CS NOT_NAMED 1926-09-12 21:00:00 TS 18.7500 -84.0725 main 319 296 P_____________ AL061926 18.7500 -84.0725 TD 30 -1 5 11
1926254N17278 1926 42 NA CS NOT_NAMED 1926-09-13 00:00:00 TS 19.0000 -84.0000 30 hurdat_atl main 296 271 O_____________ hurdat_atl AL061926 19.0000 -84.0000 TD 30 -1 5 17
1926254N17278 1926 42 NA CS NOT_NAMED 1926-09-13 03:00:00 TS 19.2500 -83.9150 main 271 236 P_____________ AL061926 19.2500 -83.9150 TD 30 -1 5 21
1926254N17278 1926 42 NA CS NOT_NAMED 1926-09-13 06:00:00 TS 19.5000 -83.8000 30 hurdat_atl main 236 211 O_____________ hurdat_atl AL061926 19.5000 -83.8000 TD 30 -1 6 25
1926254N17278 1926 42 NA CS NOT_NAMED 1926-09-13 09:00:00 TS 19.7575 -83.6650 main 201 172 P_____________ AL061926 19.7575 -83.6650 TD 30 -1 6 30
1926254N17278 1926 42 NA CS NOT_NAMED 1926-09-13 12:00:00 TS 20.0000 -83.5000 30 hurdat_atl main 172 143 O_____________ hurdat_atl AL061926 20.0000 -83.5000 TD 30 -1 6 36
1926254N17278 1926 42 NA CS NOT_NAMED 1926-09-13 15:00:00 TS 20.2075 -83.3149 main 143 116 P_____________ AL061926 20.2075 -83.3149 TD 30 -1 6 43
1926254N17278 1926 42 NA CS NOT_NAMED 1926-09-13 18:00:00 TS 20.4000 -83.1000 30 hurdat_atl main 116 90 O_____________ hurdat_atl AL061926 20.4000 -83.1000 TD 30 -1 6 47
1926254N17278 1926 42 NA CS NOT_NAMED 1926-09-13 21:00:00 TS 20.5999 -82.8724 main 90 67 P_____________ AL061926 20.5999 -82.8724 TD 30 -1 6 49
1926254N17278 1926 42 NA CS NOT_NAMED 1926-09-14 00:00:00 TS 20.8000 -82.6000 30 hurdat_atl main 70 60 O_____________ hurdat_atl AL061926 20.8000 -82.6000 TD 30 -1 7 54
1926254N17278 1926 42 NA CS NOT_NAMED 1926-09-14 03:00:00 TS 21.0074 -82.2800 main 68 63 P_____________ AL061926 21.0074 -82.2800 TD 30 -1 8 59
1926254N17278 1926 42 NA CS NOT_NAMED 1926-09-14 06:00:00 TS 21.2000 -81.9000 30 hurdat_atl main 76 76 O_____________ hurdat_atl AL061926 21.2000 -81.9000 TD 30 -1 8 67
1926254N17278 1926 42 NA CS NOT_NAMED 1926-09-14 09:00:00 TS 21.3349 -81.4721 main 84 56 P_____________ AL061926 21.3349 -81.4721 TD 30 -1 9 70
1926254N17278 1926 42 NA CS NOT_NAMED 1926-09-14 12:00:00 TS 21.5000 -81.0000 30 hurdat_atl main 59 30 O_____________ hurdat_atl AL061926 21.5000 -81.0000 TD 30 -1 10 65
1926254N17278 1926 42 NA CS NOT_NAMED 1926-09-14 15:00:00 TS 21.7624 -80.5074 main 23 0 P_____________ AL061926 21.7624 -80.5074 TD 30 -1 11 57
1926254N17278 1926 42 NA NA NOT_NAMED 1926-09-14 18:00:00 TS 22.1000 -80.0000 30 hurdat_atl main 0 0 O_____________ hurdat_atl AL061926 22.1000 -80.0000 TD 30 -1 12 52
1926254N17278 1926 42 NA NA NOT_NAMED 1926-09-14 21:00:00 TS 22.4848 -79.4999 main 0 0 P_____________ AL061926 22.4848 -79.4999 TD 32 -1 12 49
1926254N17278 1926 42 NA NA NOT_NAMED 1926-09-15 00:00:00 TS 22.9000 -79.0000 35 hurdat_atl main 61 61 O_____________ hurdat_atl AL061926 22.9000 -79.0000 TS 35 0 13 50
1926254N17278 1926 42 NA NA NOT_NAMED 1926-09-15 03:00:00 TS 23.3002 -78.4551 main 111 55 P_____________ AL061926 23.3002 -78.4551 TS 35 0 12 49
1926254N17278 1926 42 NA NA NOT_NAMED 1926-09-15 06:00:00 TS 23.7000 -78.0000 35 hurdat_atl main 55 30 O_____________ hurdat_atl AL061926 23.7000 -78.0000 TS 35 0 11 39
1926254N17278 1926 42 NA NA NOT_NAMED 1926-09-15 09:00:00 TS 24.1148 -77.7248 main 30 10 P_____________ AL061926 24.1148 -77.7248 TS 35 0 9 25
1926254N17278 1926 42 NA NA NOT_NAMED 1926-09-15 12:00:00 TS 24.5000 -77.6000 35 hurdat_atl main 10 10 O_____________ hurdat_atl AL061926 24.5000 -77.6000 TS 35 0 7 13
1926254N17278 1926 42 NA NA NOT_NAMED 1926-09-15 15:00:00 TS 24.8374 -77.5399 main 32 32 P_____________ AL061926 24.8374 -77.5399 TS 35 0 6 1
1926254N17278 1926 42 NA NA NOT_NAMED 1926-09-15 18:00:00 TS 25.1000 -77.6000 35 hurdat_atl main 37 30 O_____________ hurdat_atl AL061926 25.1000 -77.6000 TS 35 0 5 336
1926254N17278 1926 42 NA NA NOT_NAMED 1926-09-15 21:00:00 TS 25.2950 -77.7624 main 30 30 P_____________ AL061926 25.2950 -77.7624 TS 35 0 5 310
1926254N17278 1926 42 NA NA NOT_NAMED 1926-09-16 00:00:00 TS 25.4000 -78.0000 35 hurdat_atl main 33 33 O_____________ hurdat_atl AL061926 25.4000 -78.0000 TS 35 0 5 288
1926254N17278 1926 42 NA NA NOT_NAMED 1926-09-16 03:00:00 TS 25.4375 -78.2425 main 34 34 P_____________ AL061926 25.4375 -78.2425 TS 35 0 5 270
1926254N17278 1926 42 NA NA NOT_NAMED 1926-09-16 06:00:00 TS 25.4000 -78.5000 35 hurdat_atl main 52 52 O_____________ hurdat_atl AL061926 25.4000 -78.5000 TS 35 0 5 257
1926254N17278 1926 42 NA NA NOT_NAMED 1926-09-16 09:00:00 TS 25.3300 -78.7500 main 64 64 P_____________ AL061926 25.3300 -78.7500 TS 35 0 5 246
1926254N17278 1926 42 NA NA NOT_NAMED 1926-09-16 12:00:00 TS 25.2000 -79.0000 35 hurdat_atl main 83 82 O_____________ hurdat_atl AL061926 25.2000 -79.0000 TS 35 0 6 235
1926254N17278 1926 42 NA NA NOT_NAMED 1926-09-16 15:00:00 TS 25.0150 -79.2500 main 92 87 P_____________ AL061926 25.0150 -79.2500 TS 32 -1 6 229
1926254N17278 1926 42 NA NA NOT_NAMED 1926-09-16 18:00:00 TS 24.8000 -79.5000 30 hurdat_atl main 96 83 O_____________ hurdat_atl AL061926 24.8000 -79.5000 TD 30 -1 6 227
1926254N17278 1926 42 NA NA NOT_NAMED 1926-09-16 21:00:00 TS 24.5925 -79.7500 main 90 82 P_____________ AL061926 24.5925 -79.7500 TD 30 -1 6 229
1926254N17278 1926 42 NA NA NOT_NAMED 1926-09-17 00:00:00 TS 24.4000 -80.0000 30 hurdat_atl main 88 83 O_____________ hurdat_atl AL061926 24.4000 -80.0000 TD 30 -1 6 233
1926254N17278 1926 42 NA NA NOT_NAMED 1926-09-17 03:00:00 TS 24.2500 -80.2499 main 102 100 P_____________ AL061926 24.2500 -80.2499 TD 27 -1 5 237
1926254N17278 1926 42 NA NA NOT_NAMED 1926-09-17 06:00:00 TS 24.1000 -80.5000 25 hurdat_atl main 112 100 O_____________ hurdat_atl AL061926 24.1000 -80.5000 TD 25 -1 6 234
1926254N17278 1926 42 NA NA NOT_NAMED 1926-09-17 09:00:00 TS 23.9126 -80.7502 main 100 73 P_____________ AL061926 23.9126 -80.7502 TD 25 -1 6 229
1926254N17278 1926 42 NA NA NOT_NAMED 1926-09-17 12:00:00 TS 23.7000 -81.0000 25 hurdat_atl main 73 O_____________ hurdat_atl AL061926 23.7000 -81.0000 TD 25 -1 6 227

IBTrACS Databaseについて

本データベースは、米国NOAAが公開する1842年以降の世界の熱帯低気圧のベストトラックデータアーカイブInternational Best Track Archive for Climate Stewardship (IBTrACS)を、ウェブで閲覧しやすい形式に変換したものです。

最終更新日:2021-10-08